ナンディ の空港の天気 - METARとTAF

ナンディ国際空港 ( NFFN / NAN ) - フィジー ナンディ (ビティレブ島)
飛行場実況気象(Metar)
観測時間11/27 20:00 FJST (11/27 07:00 UTC)
風向・風速東南東 3m/s
視程10km以上
天気現象
少しの雲 雲底高度 550m
全天の4割程度の雲 雲底高度 1370m
気温25℃
湿度83%
気圧1012hPa
METARNFFN 270700Z 11005KT 080V140 9999 FEW018CB SCT045 25/22 Q1012 NOSIG
過去の天気等 Google飛行場航空写真 Wunderground天気予報

過去48時間のMETAR

飛行場予報(TAF)
発表時間: 11/27 18:04 FJST (11/27 05:04 UTC)
予報対象時間: 27日19時 FJST ~ 28日19時 FJST
風向・風速東南東 4m/s
視程10km以上
少しの雲 雲底高度 550m
全天の4割程度の雲 雲底高度 610m
全天の8割程度の雲 雲底高度 1220m
27日19時 FJST ~ 27日21時 FJST に 確率 40% で一時的に
視程5000m
天気現象雷雨
全天の8割程度の雲 雲底高度 460m
少しの積乱雲 雲底高度 550m
28日11時 FJST ~ 28日13時 FJST に徐々に
風向・風速西北西 6m/s
28日17時 FJST ~ 28日19時 FJST に徐々に
風向・風速東 3m/s
TAF NFFN 270504Z 2706/2806 12007KT 9999 FEW018 SCT020 BKN040
PROB40 TEMPO 2706/2708 5000 TSRA BKN015 FEW018CB
BECMG 2722/2724 29012KT
BECMG 2804/2806 10005KT